Time;durP1;ratioP1;P1;durP2;ratioP2;P2;SDS_P1;SDS_P2;PMS_P1;PMS_P2;Temp;Humidity;BMP_temperature;BMP_pressure;BME280_temperature;BME280_humidity;BME280_pressure;Samples;Min_cycle;Max_cycle;Signal;HPM_P1;HPM_P2
2023/09/24 00:02:12;;;;;;;1999.90;999.90;;;12.20;99.90;;;;;;5074417;28;20078;-68
2023/09/24 00:04:45;;;;;;;1999.90;999.90;;;12.20;99.90;;;;;;5086491;28;20028;-67
2023/09/24 00:07:10;;;;;;;1999.90;999.90;;;12.20;99.90;;;;;;5087208;28;20039;-67
2023/09/24 00:09:37;;;;;;;1999.90;999.90;;;12.20;99.90;;;;;;5082576;28;20028;-67
2023/09/24 00:12:04;;;;;;;1999.90;999.90;;;12.20;99.90;;;;;;5075872;28;20288;-68
2023/09/24 00:14:30;;;;;;;;;;;12.20;99.90;;;;;;5081773;28;20110;-68
2023/09/24 00:16:56;;;;;;;1999.90;999.90;;;12.10;99.90;;;;;;5096351;28;19904;-68
2023/09/24 00:19:23;;;;;;;1999.90;999.90;;;12.10;99.90;;;;;;5078761;28;20369;-68
2023/09/24 00:21:49;;;;;;;1999.90;999.90;;;12.00;99.90;;;;;;5078259;28;20050;-67
2023/09/24 00:24:17;;;;;;;1999.90;999.90;;;11.90;99.90;;;;;;5085495;28;20059;-82
2023/09/24 00:26:46;;;;;;;1999.90;999.90;;;11.80;99.90;;;;;;5092431;28;20020;-67
2023/09/24 00:29:13;;;;;;;1999.90;999.90;;;11.80;99.90;;;;;;5089103;28;20025;-67
2023/09/24 00:31:39;;;;;;;1999.90;999.90;;;11.70;99.90;;;;;;5083165;28;20016;-81
2023/09/24 00:34:05;;;;;;;1999.90;999.90;;;11.70;99.90;;;;;;5091029;28;20479;-68
2023/09/24 00:36:33;;;;;;;1999.90;999.90;;;11.70;99.90;;;;;;5086818;28;20020;-67
2023/09/24 00:39:00;;;;;;;1999.90;999.90;;;11.70;99.90;;;;;;5093729;28;20074;-67
2023/09/24 00:41:26;;;;;;;;;;;11.70;99.90;;;;;;5085212;28;20040;-67
2023/09/24 00:43:52;;;;;;;1999.90;999.90;;;11.70;99.90;;;;;;5080156;28;19909;-67
2023/09/24 00:46:21;;;;;;;1999.90;999.90;;;11.60;99.90;;;;;;5091606;28;20411;-67
2023/09/24 00:48:48;;;;;;;1999.90;999.90;;;11.60;99.90;;;;;;5080687;28;20045;-84
2023/09/24 00:51:18;;;;;;;1999.90;999.90;;;11.60;99.90;;;;;;5094876;28;20097;-68
2023/09/24 00:53:46;;;;;;;1999.90;999.90;;;11.60;99.90;;;;;;5078139;28;20024;-67
2023/09/24 00:56:13;;;;;;;1999.90;999.90;;;11.60;99.90;;;;;;5089617;28;20028;-68
2023/09/24 00:58:42;;;;;;;1999.90;999.90;;;11.60;99.90;;;;;;5084244;28;20074;-67
2023/09/24 01:01:08;;;;;;;1999.90;999.90;;;11.60;99.90;;;;;;5092705;28;20319;-67
2023/09/24 01:03:34;;;;;;;1999.90;999.90;;;11.60;99.90;;;;;;5079044;28;20016;-67
2023/09/24 01:06:00;;;;;;;1999.90;999.90;;;11.50;99.90;;;;;;5077013;28;20032;-67
2023/09/24 01:08:33;;;;;;;1999.90;999.90;;;11.50;99.90;;;;;;5080214;28;20265;-67
2023/09/24 01:11:00;;;;;;;1999.90;999.90;;;11.50;99.90;;;;;;5080855;28;20033;-67
2023/09/24 01:13:37;;;;;;;1999.90;999.90;;;11.50;99.90;;;;;;5077773;28;20105;-68
2023/09/24 01:16:05;;;;;;;1999.90;999.90;;;11.50;99.90;;;;;;5079021;28;20024;-67
2023/09/24 01:18:31;;;;;;;1999.90;999.90;;;11.50;99.90;;;;;;5097100;28;20031;-71
2023/09/24 01:20:58;;;;;;;1999.90;999.90;;;11.50;99.90;;;;;;5083296;28;20028;-82
2023/09/24 01:23:24;;;;;;;1999.90;999.90;;;11.50;99.90;;;;;;5091586;28;20036;-83
2023/09/24 01:25:51;;;;;;;1999.90;999.90;;;11.40;99.90;;;;;;5094668;28;20391;-67
2023/09/24 01:28:16;;;;;;;1999.90;999.90;;;11.40;99.90;;;;;;5093947;28;20024;-83
2023/09/24 01:30:43;;;;;;;1999.90;999.90;;;11.50;99.90;;;;;;5086690;28;20321;-67
2023/09/24 01:33:09;;;;;;;1999.90;999.90;;;11.50;99.90;;;;;;5081372;28;20107;-67
2023/09/24 01:35:36;;;;;;;1999.90;999.90;;;11.50;99.90;;;;;;5093640;28;20427;-67
2023/09/24 01:38:06;;;;;;;1999.90;999.90;;;11.50;99.90;;;;;;5091123;28;20024;-67
2023/09/24 01:40:34;;;;;;;1999.90;999.90;;;11.50;99.90;;;;;;5086607;28;20036;-67
2023/09/24 01:43:07;;;;;;;1999.90;999.90;;;11.60;99.90;;;;;;5085637;28;20078;-67
2023/09/24 01:45:34;;;;;;;1999.90;999.90;;;11.60;99.90;;;;;;5084683;28;20028;-68
2023/09/24 01:48:02;;;;;;;;;;;11.60;99.90;;;;;;5075774;28;20032;-67
2023/09/24 01:50:28;;;;;;;1999.90;999.90;;;11.60;99.90;;;;;;5075748;28;20045;-67
2023/09/24 01:52:57;;;;;;;1999.90;999.90;;;11.60;99.90;;;;;;5081610;28;20040;-68
2023/09/24 01:55:25;;;;;;;1999.90;999.90;;;11.60;99.90;;;;;;5076102;28;20036;-67
2023/09/24 01:57:51;;;;;;;1999.90;999.90;;;11.60;99.90;;;;;;5080082;28;20036;-67
2023/09/24 02:00:24;;;;;;;1999.90;999.90;;;11.60;99.90;;;;;;5083883;28;20028;-67
2023/09/24 02:02:54;;;;;;;1999.90;999.90;;;11.60;99.90;;;;;;5080175;28;20038;-67
2023/09/24 02:05:20;;;;;;;1999.90;999.90;;;11.60;99.90;;;;;;5081233;28;20028;-67
2023/09/24 02:07:50;;;;;;;1999.90;999.90;;;11.50;99.90;;;;;;5080430;28;20033;-67
2023/09/24 02:10:21;;;;;;;1999.90;999.90;;;11.50;99.90;;;;;;5074181;28;20041;-67
2023/09/24 02:12:47;;;;;;;1999.90;999.90;;;11.50;99.90;;;;;;5080863;28;20082;-67
2023/09/24 02:15:17;;;;;;;1999.90;999.90;;;11.50;99.90;;;;;;5075102;28;20048;-67
2023/09/24 02:17:44;;;;;;;1999.90;999.90;;;11.50;99.90;;;;;;5075535;28;21381;-67
2023/09/24 02:20:25;;;;;;;1999.90;999.90;;;11.50;99.90;;;;;;5082808;28;20029;-67
2023/09/24 02:22:52;;;;;;;1999.90;999.90;;;11.50;99.90;;;;;;5075591;28;20058;-79
2023/09/24 02:25:19;;;;;;;1999.90;999.90;;;11.50;99.90;;;;;;5083044;28;20307;-66
2023/09/24 02:27:50;;;;;;;1999.90;999.90;;;11.50;99.90;;;;;;5083021;28;20412;-67
2023/09/24 02:30:17;;;;;;;1999.90;999.90;;;11.50;99.90;;;;;;5074610;28;20028;-67
2023/09/24 02:32:44;;;;;;;1999.90;999.90;;;11.40;99.90;;;;;;5075561;28;20031;-68
2023/09/24 02:35:11;;;;;;;1999.90;999.90;;;11.40;99.90;;;;;;5081340;28;20093;-67
2023/09/24 02:37:38;;;;;;;1999.90;999.90;;;11.50;99.90;;;;;;5076269;28;20039;-80
2023/09/24 02:40:11;;;;;;;1999.90;999.90;;;11.40;99.90;;;;;;5081801;28;20120;-67
2023/09/24 02:42:37;;;;;;;1999.90;999.90;;;11.40;99.90;;;;;;5079959;28;20064;-67
2023/09/24 02:45:07;;;;;;;1999.90;999.90;;;11.40;99.90;;;;;;5083513;28;20326;-67
2023/09/24 02:47:33;;;;;;;1999.90;999.90;;;11.40;99.90;;;;;;5078947;28;20056;-67
2023/09/24 02:49:58;;;;;;;1999.90;999.90;;;11.30;99.90;;;;;;5091064;28;20024;-67
2023/09/24 02:52:24;;;;;;;1999.90;999.90;;;11.30;99.90;;;;;;5079457;28;20074;-68
2023/09/24 02:54:50;;;;;;;1999.90;999.90;;;11.30;99.90;;;;;;5079596;28;20028;-84
2023/09/24 02:57:15;;;;;;;1999.90;999.90;;;11.20;99.90;;;;;;5078444;28;20320;-67
2023/09/24 02:59:41;;;;;;;1999.90;999.90;;;11.20;99.90;;;;;;5079706;28;20033;-67
2023/09/24 03:02:07;;;;;;;1999.90;999.90;;;11.20;99.90;;;;;;5082163;28;20060;-67
2023/09/24 03:04:34;;;;;;;1999.90;999.90;;;11.20;99.90;;;;;;5088099;28;20054;-67
2023/09/24 03:06:59;;;;;;;1999.90;999.90;;;11.20;99.90;;;;;;5083781;28;20020;-67
2023/09/24 03:09:25;;;;;;;1999.90;999.90;;;11.20;99.90;;;;;;5084448;28;20021;-67
2023/09/24 03:11:51;;;;;;;1999.90;999.90;;;11.10;99.90;;;;;;5090608;28;20457;-69
2023/09/24 03:14:17;;;;;;;1999.90;999.90;;;11.10;99.90;;;;;;5088874;28;20032;-67
2023/09/24 03:16:43;;;;;;;1999.90;999.90;;;11.00;99.90;;;;;;5082673;28;20082;-67
2023/09/24 03:19:09;;;;;;;1999.90;999.90;;;11.00;99.90;;;;;;5074491;28;20032;-67
2023/09/24 03:21:35;;;;;;;1999.90;999.90;;;11.00;99.90;;;;;;5084376;28;20109;-67
2023/09/24 03:24:02;;;;;;;1999.90;999.90;;;10.90;99.90;;;;;;5075392;28;20077;-67
2023/09/24 03:26:28;;;;;;;1999.90;999.90;;;10.90;99.90;;;;;;5074034;28;20312;-67
2023/09/24 03:28:54;;;;;;;1999.90;999.90;;;10.90;99.90;;;;;;5075804;28;20031;-83
2023/09/24 03:31:20;;;;;;;1999.90;999.90;;;10.90;99.90;;;;;;5083643;28;20035;-67
2023/09/24 03:33:46;;;;;;;1999.90;999.90;;;10.90;99.90;;;;;;5078014;28;20027;-67
2023/09/24 03:36:12;;;;;;;1999.90;999.90;;;10.80;99.90;;;;;;5077192;28;20066;-67
2023/09/24 03:38:38;;;;;;;1999.90;999.90;;;10.80;99.90;;;;;;5081090;28;20048;-67
2023/09/24 03:41:04;;;;;;;1999.90;999.90;;;10.80;99.90;;;;;;5091520;28;20084;-67
2023/09/24 03:43:30;;;;;;;1999.90;999.90;;;10.80;99.90;;;;;;5084342;28;20024;-67
2023/09/24 03:45:56;;;;;;;1999.90;999.90;;;10.80;99.90;;;;;;5084585;28;20020;-78
2023/09/24 03:48:23;;;;;;;1999.90;999.90;;;10.80;99.90;;;;;;5088360;28;20045;-67
2023/09/24 03:50:53;;;;;;;1999.90;999.90;;;10.80;99.90;;;;;;5077874;28;20028;-67
2023/09/24 03:53:19;;;;;;;1999.90;999.90;;;10.80;99.90;;;;;;5078074;28;20036;-67
2023/09/24 03:55:45;;;;;;;1999.90;999.90;;;10.80;99.90;;;;;;5080724;28;20617;-67
2023/09/24 03:58:12;;;;;;;1999.90;999.90;;;10.80;99.90;;;;;;5083874;28;20036;-67
2023/09/24 04:00:38;;;;;;;1999.90;999.90;;;10.80;99.90;;;;;;5085059;28;20032;-67
2023/09/24 04:03:03;;;;;;;1999.90;999.90;;;10.80;99.90;;;;;;5086860;28;20100;-82
2023/09/24 04:05:30;;;;;;;1999.90;999.90;;;10.80;99.90;;;;;;5077561;28;20375;-67
2023/09/24 04:07:56;;;;;;;1999.90;999.90;;;10.80;99.90;;;;;;5078276;28;20115;-67
2023/09/24 04:10:27;;;;;;;1999.90;999.90;;;10.80;99.90;;;;;;5085032;28;20029;-67
2023/09/24 04:12:52;;;;;;;1999.90;999.90;;;10.80;99.90;;;;;;5081012;28;20360;-67
2023/09/24 04:15:21;;;;;;;1999.90;999.90;;;10.80;99.90;;;;;;5078338;28;20112;-67
2023/09/24 04:17:49;;;;;;;1999.90;999.90;;;10.80;99.90;;;;;;5087552;28;20055;-83
2023/09/24 04:20:20;;;;;;;1999.90;999.90;;;10.80;99.90;;;;;;5088506;28;20111;-67
2023/09/24 04:22:46;;;;;;;1999.90;999.90;;;10.90;99.90;;;;;;5083351;28;20125;-67
2023/09/24 04:25:15;;;;;;;1999.90;999.90;;;10.90;99.90;;;;;;5080975;28;20032;-67
2023/09/24 04:27:44;;;;;;;1999.90;999.90;;;10.90;99.90;;;;;;5095524;28;20028;-83
2023/09/24 04:30:11;;;;;;;1999.90;999.90;;;10.90;99.90;;;;;;5088766;28;20020;-67
2023/09/24 04:32:36;;;;;;;;;;;11.00;99.90;;;;;;5083646;28;20319;-68
2023/09/24 04:35:02;;;;;;;1999.90;999.90;;;11.00;99.90;;;;;;5077015;28;19916;-67
2023/09/24 04:37:28;;;;;;;1999.90;999.90;;;10.90;99.90;;;;;;5084972;28;20024;-67
2023/09/24 04:39:54;;;;;;;1999.90;999.90;;;11.00;99.90;;;;;;5085276;28;20419;-67
2023/09/24 04:42:20;;;;;;;1999.90;999.90;;;11.00;99.90;;;;;;5089961;28;20024;-86
2023/09/24 04:44:46;;;;;;;1999.90;999.90;;;11.00;99.90;;;;;;5079408;28;20093;-82
2023/09/24 04:47:12;;;;;;;1999.90;999.90;;;10.90;99.90;;;;;;5091520;28;20024;-67
2023/09/24 04:49:38;;;;;;;1999.90;999.90;;;10.90;99.90;;;;;;5077766;28;20060;-67
2023/09/24 04:52:04;;;;;;;1999.90;999.90;;;10.90;99.90;;;;;;5083722;28;20071;-67
2023/09/24 04:54:30;;;;;;;1999.90;999.90;;;10.90;99.90;;;;;;5085519;28;20025;-67
2023/09/24 04:56:56;;;;;;;1999.90;999.90;;;10.90;99.90;;;;;;5083776;28;20602;-82
2023/09/24 04:59:22;;;;;;;1999.90;999.90;;;10.90;99.90;;;;;;5084391;28;20872;-66
2023/09/24 05:01:47;;;;;;;1999.90;999.90;;;10.90;99.90;;;;;;5087872;28;20305;-83
2023/09/24 05:04:16;;;;;;;1999.90;999.90;;;10.90;99.90;;;;;;5081232;27;20058;-67
2023/09/24 05:06:42;;;;;;;1999.90;999.90;;;10.90;99.90;;;;;;5084965;28;20279;-67
2023/09/24 05:09:08;;;;;;;1999.90;999.90;;;10.80;99.90;;;;;;5089297;28;20085;-67
2023/09/24 05:11:34;;;;;;;1999.90;999.90;;;10.80;99.90;;;;;;5085115;28;20082;-67
2023/09/24 05:14:00;;;;;;;1999.90;999.90;;;10.80;99.90;;;;;;5082567;28;20023;-67
2023/09/24 05:16:26;;;;;;;1999.90;999.90;;;10.80;99.90;;;;;;5087762;28;20280;-67
2023/09/24 05:18:52;;;;;;;1999.90;999.90;;;10.80;99.90;;;;;;5087372;28;20048;-77
2023/09/24 05:21:19;;;;;;;1999.90;999.90;;;10.80;99.90;;;;;;5085483;28;20029;-67
2023/09/24 05:23:46;;;;;;;1999.90;999.90;;;10.70;99.90;;;;;;5080534;28;20024;-67
2023/09/24 05:26:14;;;;;;;1999.90;999.90;;;10.80;99.90;;;;;;5090596;28;20030;-67
2023/09/24 05:28:40;;;;;;;1999.90;999.90;;;10.80;99.90;;;;;;5085898;28;20027;-67
2023/09/24 05:31:07;;;;;;;1999.90;999.90;;;10.80;99.90;;;;;;5083273;28;20062;-67
2023/09/24 05:33:33;;;;;;;1999.90;999.90;;;10.80;99.90;;;;;;5086294;28;20071;-67
2023/09/24 05:35:59;;;;;;;1999.90;999.90;;;10.70;99.90;;;;;;5091496;28;20047;-83
2023/09/24 05:38:29;;;;;;;1999.90;999.90;;;10.80;99.90;;;;;;5090853;28;20103;-67
2023/09/24 05:40:55;;;;;;;1999.90;999.90;;;10.80;99.90;;;;;;5098652;28;20160;-67
2023/09/24 05:43:22;;;;;;;1999.90;999.90;;;10.80;99.90;;;;;;5093148;28;20039;-67
2023/09/24 05:45:49;;;;;;;1999.90;999.90;;;10.80;99.90;;;;;;5095295;28;20036;-67
2023/09/24 05:48:16;;;;;;;1999.90;999.90;;;10.80;99.90;;;;;;5079770;28;20458;-67
2023/09/24 05:50:43;;;;;;;1999.90;999.90;;;10.80;99.90;;;;;;5095207;28;20028;-67
2023/09/24 05:53:10;;;;;;;1999.90;999.90;;;10.80;99.90;;;;;;5089468;28;20040;-81
2023/09/24 05:55:36;;;;;;;1999.90;999.90;;;10.90;99.90;;;;;;5085726;28;20107;-67
2023/09/24 05:58:04;;;;;;;1999.90;999.90;;;11.00;99.90;;;;;;5091191;28;20023;-67
2023/09/24 06:00:31;;;;;;;1999.90;999.90;;;11.00;99.90;;;;;;5080298;28;20081;-67
2023/09/24 06:02:58;;;;;;;1999.90;999.90;;;11.00;99.90;;;;;;5073837;28;20048;-67
2023/09/24 06:05:24;;;;;;;1999.90;999.90;;;11.10;99.90;;;;;;5092017;28;20047;-67
2023/09/24 06:07:50;;;;;;;1999.90;999.90;;;11.10;99.90;;;;;;5093453;28;20374;-67
2023/09/24 06:10:16;;;;;;;1999.90;999.90;;;11.10;99.90;;;;;;5083185;28;20020;-68
2023/09/24 06:12:42;;;;;;;1999.90;999.90;;;11.20;99.90;;;;;;5078419;28;20050;-67
2023/09/24 06:15:10;;;;;;;1999.90;999.90;;;11.20;99.90;;;;;;5089484;28;20028;-67
2023/09/24 06:17:36;;;;;;;1999.90;999.90;;;11.20;99.90;;;;;;5098491;28;20028;-83
2023/09/24 06:20:03;;;;;;;1999.90;999.90;;;11.20;99.90;;;;;;5093798;28;20057;-67
2023/09/24 06:22:29;;;;;;;1999.90;999.90;;;11.20;99.90;;;;;;5082141;28;20021;-67
2023/09/24 06:24:54;;;;;;;1999.90;999.90;;;11.20;99.90;;;;;;5089469;28;20029;-81
2023/09/24 06:27:22;;;;;;;1999.90;999.90;;;11.20;99.90;;;;;;5095193;28;20023;-82
2023/09/24 06:29:48;;;;;;;1999.90;999.90;;;11.10;99.90;;;;;;5095561;28;20043;-67
2023/09/24 06:32:14;;;;;;;1999.90;999.90;;;11.10;99.90;;;;;;5081313;28;20411;-67
2023/09/24 06:34:40;;;;;;;1999.90;999.90;;;11.10;99.90;;;;;;5097402;28;20031;-67
2023/09/24 06:37:06;;;;;;;1999.90;999.90;;;11.10;99.90;;;;;;5086926;28;20039;-67
2023/09/24 06:39:33;;;;;;;1999.90;999.90;;;11.00;99.90;;;;;;5089615;28;20027;-67
2023/09/24 06:42:02;;;;;;;1999.90;999.90;;;11.00;99.90;;;;;;5074746;28;20041;-83
2023/09/24 06:44:29;;;;;;;1999.90;999.90;;;11.00;99.90;;;;;;5079744;28;20047;-67
2023/09/24 06:46:55;;;;;;;;;;;11.10;99.90;;;;;;5077542;28;20050;-68
2023/09/24 06:49:21;;;;;;;1999.90;999.90;;;11.10;99.90;;;;;;5087930;28;20639;-67
2023/09/24 06:51:47;;;;;;;1999.90;999.90;;;11.10;99.90;;;;;;5087718;28;20040;-67
2023/09/24 06:54:13;;;;;;;1999.90;999.90;;;11.10;99.90;;;;;;5075114;28;20028;-67
2023/09/24 06:56:39;;;;;;;1999.90;999.90;;;11.20;99.90;;;;;;5075504;28;20020;-67
2023/09/24 06:59:09;;;;;;;1999.90;999.90;;;11.40;99.90;;;;;;5082995;28;20024;-67
2023/09/24 07:01:36;;;;;;;1999.90;999.90;;;11.50;99.90;;;;;;5073423;28;20058;-67
2023/09/24 07:04:04;;;;;;;1999.90;999.90;;;11.70;99.90;;;;;;5084077;28;20024;-67
2023/09/24 07:06:30;;;;;;;1999.90;999.90;;;11.90;99.90;;;;;;5088054;28;20100;-67
2023/09/24 07:08:58;;;;;;;1999.90;999.90;;;12.10;99.90;;;;;;5081943;28;20016;-80
2023/09/24 07:11:36;;;;;;;1999.90;999.90;;;12.20;99.90;;;;;;5081595;28;20418;-68
2023/09/24 07:14:04;;;;;;;1999.90;999.90;;;12.50;99.90;;;;;;5079489;28;20036;-67
2023/09/24 07:16:30;;;;;;;1999.90;999.90;;;12.70;99.90;;;;;;5077881;28;20023;-81
2023/09/24 07:18:57;;;;;;;1999.90;999.90;;;12.90;99.90;;;;;;5087575;28;20138;-67
2023/09/24 07:21:28;;;;;;;1999.90;999.90;;;13.00;99.90;;;;;;5088541;28;20472;-67
2023/09/24 07:23:56;;;;;;;1999.90;999.90;;;13.20;99.90;;;;;;5081359;28;20078;-71
2023/09/24 07:26:23;;;;;;;1999.90;999.90;;;13.30;99.90;;;;;;5086374;28;20028;-67
2023/09/24 07:28:49;;;;;;;;;;;13.60;99.90;;;;;;5087202;28;20169;-67
2023/09/24 07:31:17;;;;;;;1999.90;999.90;;;13.60;99.90;;;;;;5081898;28;19908;-67
2023/09/24 07:33:43;;;;;;;1999.90;999.90;;;13.70;99.90;;;;;;5090467;28;20095;-68
2023/09/24 07:36:09;;;;;;;1999.90;999.90;;;13.80;99.90;;;;;;5083372;28;20339;-67
2023/09/24 07:38:35;;;;;;;1999.90;999.90;;;14.00;99.90;;;;;;5089832;27;20028;-67
2023/09/24 07:41:01;;;;;;;1999.90;999.90;;;14.10;99.90;;;;;;5081666;28;20308;-72
2023/09/24 07:43:28;;;;;;;1999.90;999.90;;;14.30;99.90;;;;;;5082700;28;20024;-67
2023/09/24 07:45:54;;;;;;;1999.90;999.90;;;14.50;99.90;;;;;;5084259;28;20052;-67
2023/09/24 07:48:20;;;;;;;1999.90;999.90;;;14.70;99.90;;;;;;5093653;28;20068;-67
2023/09/24 07:50:53;;;;;;;1999.90;999.90;;;14.80;99.90;;;;;;5093313;28;20024;-67
2023/09/24 07:53:22;;;;;;;1999.90;999.90;;;14.90;99.90;;;;;;5086174;28;20070;-78
2023/09/24 07:55:58;;;;;;;1999.90;999.90;;;15.00;99.90;;;;;;5081943;28;20024;-67
2023/09/24 07:58:24;;;;;;;1999.90;999.90;;;15.10;99.90;;;;;;5085101;28;20123;-67
2023/09/24 08:00:54;;;;;;;1999.90;999.90;;;15.30;99.90;;;;;;5086211;28;20033;-67
2023/09/24 08:03:20;;;;;;;1999.90;999.90;;;15.40;99.90;;;;;;5090686;28;20063;-67
2023/09/24 08:05:46;;;;;;;1999.90;999.90;;;15.50;99.90;;;;;;5085933;28;20024;-68
2023/09/24 08:08:12;;;;;;;1999.90;999.90;;;15.60;99.90;;;;;;5087754;28;20024;-67
2023/09/24 08:10:38;;;;;;;1999.90;999.90;;;15.80;99.90;;;;;;5076981;28;20024;-67
2023/09/24 08:13:04;;;;;;;1999.90;999.90;;;16.10;99.90;;;;;;5079054;28;20040;-72
2023/09/24 08:15:31;;;;;;;1999.90;999.90;;;16.20;99.90;;;;;;5077313;28;20343;-67
2023/09/24 08:17:56;;;;;;;1999.90;999.90;;;16.30;99.90;;;;;;5090521;28;20048;-67
2023/09/24 08:20:22;;;;;;;1999.90;999.90;;;16.40;99.90;;;;;;5088482;28;20531;-67
2023/09/24 08:22:48;;;;;;;1999.90;999.90;;;16.50;99.90;;;;;;5086270;28;20415;-67
2023/09/24 08:25:14;;;;;;;1999.90;999.90;;;16.70;99.90;;;;;;5084386;28;20031;-67
2023/09/24 08:27:40;;;;;;;1999.90;999.90;;;16.90;99.90;;;;;;5082812;28;20319;-67
2023/09/24 08:30:07;;;;;;;1999.90;999.90;;;17.00;99.90;;;;;;5077419;28;20037;-67
2023/09/24 08:32:32;;;;;;;1999.90;999.90;;;17.20;99.90;;;;;;5078000;28;20035;-67
2023/09/24 08:34:58;;;;;;;1999.90;999.90;;;17.30;99.90;;;;;;5088778;28;20039;-67
2023/09/24 08:37:24;;;;;;;1999.90;999.90;;;17.50;99.90;;;;;;5080800;28;20032;-68
2023/09/24 08:39:50;;;;;;;1999.90;999.90;;;17.50;99.90;;;;;;5084854;28;20081;-81
2023/09/24 08:42:19;;;;;;;1999.90;999.90;;;17.70;99.90;;;;;;5088256;28;20039;-68
2023/09/24 08:44:53;;;;;;;1999.90;999.90;;;17.70;99.90;;;;;;5090284;28;20051;-68
2023/09/24 08:47:21;;;;;;;1999.90;999.90;;;17.50;99.90;;;;;;5080196;28;20029;-68
2023/09/24 08:49:48;;;;;;;1999.90;999.90;;;17.40;99.90;;;;;;5076877;28;20025;-67
2023/09/24 08:52:17;;;;;;;1999.90;999.90;;;17.40;99.90;;;;;;5080889;28;20028;-67
2023/09/24 08:54:44;;;;;;;1999.90;999.90;;;17.40;99.90;;;;;;5077212;28;20116;-67
2023/09/24 08:57:10;;;;;;;1999.90;999.90;;;17.60;99.90;;;;;;5083693;28;20070;-78
2023/09/24 08:59:36;;;;;;;1999.90;999.90;;;17.60;99.90;;;;;;5076271;28;20032;-78
2023/09/24 09:02:03;;;;;;;1999.90;999.90;;;17.60;99.90;;;;;;5089558;28;20036;-67
2023/09/24 09:04:28;;;;;;;1999.90;999.90;;;17.70;99.90;;;;;;5083688;28;20044;-67
2023/09/24 09:06:57;;;;;;;1999.90;999.90;;;17.80;99.90;;;;;;5084390;28;20056;-67
2023/09/24 09:09:25;;;;;;;1999.90;999.90;;;17.90;99.90;;;;;;5079621;28;20034;-67
2023/09/24 09:11:52;;;;;;;1999.90;999.90;;;18.00;99.90;;;;;;5082534;28;20036;-73
2023/09/24 09:14:34;;;;;;;1999.90;999.90;;;18.10;99.90;;;;;;5090133;28;20174;-67
2023/09/24 09:17:00;;;;;;;1999.90;999.90;;;18.20;99.90;;;;;;5085742;28;20032;-67
2023/09/24 09:19:27;;;;;;;1999.90;999.90;;;18.20;99.90;;;;;;5081970;28;20036;-66
2023/09/24 09:21:53;;;;;;;1999.90;999.90;;;18.20;99.90;;;;;;5085678;28;20488;-66
2023/09/24 09:24:24;;;;;;;1999.90;999.90;;;18.40;99.90;;;;;;5087855;28;20028;-66
2023/09/24 09:26:57;;;;;;;1999.90;999.90;;;18.50;99.90;;;;;;5090095;28;20028;-80
2023/09/24 09:29:24;;;;;;;1999.90;999.90;;;18.50;99.90;;;;;;5087428;28;20020;-67
2023/09/24 09:31:50;;;;;;;1999.90;999.90;;;18.70;99.90;;;;;;5088513;28;20027;-66
2023/09/24 09:34:17;;;;;;;1999.90;999.90;;;18.70;99.90;;;;;;5090126;28;20629;-78
2023/09/24 09:36:43;;;;;;;1999.90;999.90;;;18.90;99.90;;;;;;5083886;28;20032;-67
2023/09/24 09:39:09;;;;;;;1999.90;999.90;;;18.90;99.90;;;;;;5086826;28;20024;-66
2023/09/24 09:41:35;;;;;;;1999.90;999.90;;;19.10;99.90;;;;;;5088355;28;20358;-67
2023/09/24 09:44:07;;;;;;;1999.90;999.90;;;19.10;99.90;;;;;;5082335;28;20052;-67
2023/09/24 09:46:43;;;;;;;1999.90;999.90;;;19.10;99.90;;;;;;5088566;28;20028;-67
2023/09/24 09:49:12;;;;;;;1999.90;999.90;;;19.10;99.90;;;;;;5088601;28;20093;-66
2023/09/24 09:51:45;;;;;;;1999.90;999.90;;;19.20;99.90;;;;;;5081310;28;20036;-66
2023/09/24 09:54:12;;;;;;;1999.90;999.90;;;19.50;99.90;;;;;;5088805;28;20061;-66
2023/09/24 09:56:40;;;;;;;1999.90;999.90;;;19.60;99.90;;;;;;5075772;28;20028;-66
2023/09/24 09:59:07;;;;;;;1999.90;999.90;;;19.60;99.90;;;;;;5081062;28;20570;-66
2023/09/24 10:01:33;;;;;;;1999.90;999.90;;;19.80;99.90;;;;;;5084897;28;20024;-66
2023/09/24 10:04:05;;;;;;;1999.90;999.90;;;19.80;99.90;;;;;;5088038;28;20028;-67
2023/09/24 10:06:37;;;;;;;1999.90;999.90;;;19.60;99.90;;;;;;5077219;28;20025;-68
2023/09/24 10:09:26;;;;;;;1999.90;999.90;;;19.50;99.90;;;;;;5082116;28;20044;-67
2023/09/24 10:11:53;;;;;;;1999.90;999.90;;;19.40;99.90;;;;;;5081765;28;20123;-66
2023/09/24 10:14:38;;;;;;;1999.90;999.90;;;19.40;99.90;;;;;;5083844;28;20116;-67
2023/09/24 10:17:15;;;;;;;1999.90;999.90;;;19.50;99.90;;;;;;5085949;28;20050;-67
2023/09/24 10:19:55;;;;;;;1999.90;999.90;;;19.50;99.90;;;;;;5084210;28;20032;-67
2023/09/24 10:22:31;;;;;;;1999.90;999.90;;;19.50;99.90;;;;;;5083489;28;20031;-79
2023/09/24 10:24:58;;;;;;;1999.90;999.90;;;19.50;99.90;;;;;;5086332;28;20035;-67
2023/09/24 10:27:45;;;;;;;1999.90;999.90;;;19.40;99.90;;;;;;5085866;28;20028;-67
2023/09/24 10:30:12;;;;;;;1999.90;999.90;;;19.40;99.90;;;;;;5084094;28;20066;-67
2023/09/24 10:32:43;;;;;;;1999.90;999.90;;;19.40;99.90;;;;;;5081536;28;20031;-67
2023/09/24 10:35:10;;;;;;;1999.90;999.90;;;19.40;99.90;;;;;;5076662;28;20041;-69
2023/09/24 10:37:59;;;;;;;1999.90;999.90;;;19.50;99.90;;;;;;5084906;28;20107;-67
2023/09/24 10:40:27;;;;;;;1999.90;999.90;;;19.50;99.90;;;;;;5076205;28;20134;-67
2023/09/24 10:43:13;;;;;;;1999.90;999.90;;;19.40;99.90;;;;;;5074387;28;20032;-67
2023/09/24 10:45:39;;;;;;;;;;;19.50;99.90;;;;;;5079404;28;20300;-67
2023/09/24 10:48:04;;;;;;;1999.90;999.90;;;19.50;99.90;;;;;;5085719;28;19938;-68
2023/09/24 10:50:31;;;;;;;1999.90;999.90;;;19.50;99.90;;;;;;5080089;28;20047;-67
2023/09/24 10:53:01;;;;;;;1999.90;999.90;;;19.40;99.90;;;;;;5080142;28;20035;-68
2023/09/24 10:55:29;;;;;;;1999.90;999.90;;;19.30;99.90;;;;;;5083323;28;20056;-78
2023/09/24 10:57:58;;;;;;;1999.90;999.90;;;19.20;99.90;;;;;;5084024;28;20032;-68
2023/09/24 11:00:25;;;;;;;1999.90;999.90;;;19.20;99.90;;;;;;5084970;28;20036;-67
2023/09/24 11:03:09;;;;;;;1999.90;999.90;;;19.20;99.90;;;;;;5080014;28;20060;-73
2023/09/24 11:05:36;;;;;;;1999.90;999.90;;;19.20;99.90;;;;;;5081613;28;20035;-69
2023/09/24 11:08:02;;;;;;;1999.90;999.90;;;19.10;99.90;;;;;;5073921;28;20190;-67
2023/09/24 11:10:28;;;;;;;1999.90;999.90;;;19.00;99.90;;;;;;5082188;28;20031;-78
2023/09/24 11:12:56;;;;;;;1999.90;999.90;;;19.10;99.90;;;;;;5077920;28;20029;-67
2023/09/24 11:15:24;;;;;;;1999.90;999.90;;;19.00;99.90;;;;;;5083891;28;20032;-67
2023/09/24 11:17:51;;;;;;;1999.90;999.90;;;18.90;99.90;;;;;;5081479;28;20047;-76
2023/09/24 11:20:20;;;;;;;1999.90;999.90;;;18.80;99.90;;;;;;5079475;28;20389;-66
2023/09/24 11:22:58;;;;;;;1999.90;999.90;;;18.70;99.90;;;;;;5086377;28;20540;-80
2023/09/24 11:25:24;;;;;;;1999.90;999.90;;;18.60;99.90;;;;;;5072262;28;20035;-67
2023/09/24 11:27:52;;;;;;;1999.90;999.90;;;18.70;99.90;;;;;;5078946;28;20025;-67
2023/09/24 11:30:19;;;;;;;1999.90;999.90;;;19.00;99.90;;;;;;5083854;28;20446;-66
2023/09/24 11:32:46;;;;;;;1999.90;999.90;;;19.20;99.90;;;;;;5088002;28;20032;-67
2023/09/24 11:35:17;;;;;;;1999.90;999.90;;;19.40;99.90;;;;;;5085808;28;20035;-67
2023/09/24 11:37:49;;;;;;;1999.90;999.90;;;19.60;99.90;;;;;;5080982;28;20311;-66
2023/09/24 11:40:34;;;;;;;1999.90;999.90;;;19.70;99.90;;;;;;5088301;28;20041;-66
2023/09/24 11:43:01;;;;;;;1999.90;999.90;;;19.80;99.90;;;;;;5081864;28;20031;-67
2023/09/24 11:45:48;;;;;;;1999.90;999.90;;;19.90;99.90;;;;;;5089595;28;20035;-66
2023/09/24 11:48:17;;;;;;;1999.90;999.90;;;19.90;99.90;;;;;;5086325;28;20040;-66
2023/09/24 11:50:45;;;;;;;1999.90;999.90;;;19.90;99.90;;;;;;5082948;28;20025;-66
2023/09/24 11:53:12;;;;;;;1999.90;999.90;;;19.90;99.90;;;;;;5086040;28;20457;-79
2023/09/24 11:55:38;;;;;;;1999.90;999.90;;;20.00;99.90;;;;;;5092644;28;20372;-66
2023/09/24 11:58:07;;;;;;;1999.90;999.90;;;20.00;99.90;;;;;;5087364;28;20111;-67
2023/09/24 12:00:35;;;;;;;1999.90;999.90;;;20.00;99.90;;;;;;5092479;28;20081;-67
2023/09/24 12:03:01;;;;;;;1999.90;999.90;;;19.90;99.90;;;;;;5089124;28;20127;-67
2023/09/24 12:05:29;;;;;;;1999.90;999.90;;;19.90;99.90;;;;;;5081892;28;20082;-67